sensor_id;sensor_type;location;lat;lon;timestamp;pressure;altitude;pressure_sealevel;temperature;humidity
3142;BME280;1581;51.568;6.998;2023-03-04T00:01:27;101799.13;;;6.68;98.77
3142;BME280;1581;51.568;6.998;2023-03-04T00:03:55;101798.25;;;6.86;98.44
3142;BME280;1581;51.568;6.998;2023-03-04T00:06:22;101804.84;;;7.01;97.56
3142;BME280;1581;51.568;6.998;2023-03-04T00:08:50;101802.16;;;6.92;97.75
3142;BME280;1581;51.568;6.998;2023-03-04T00:11:19;101806.34;;;6.94;98.05
3142;BME280;1581;51.568;6.998;2023-03-04T00:13:47;101799.66;;;6.53;100.00
3142;BME280;1581;51.568;6.998;2023-03-04T00:16:15;101803.50;;;6.39;100.00
3142;BME280;1581;51.568;6.998;2023-03-04T00:18:42;101798.72;;;6.24;100.00
3142;BME280;1581;51.568;6.998;2023-03-04T00:21:10;101802.97;;;6.55;100.00
3142;BME280;1581;51.568;6.998;2023-03-04T00:23:38;101806.06;;;6.60;100.00
3142;BME280;1581;51.568;6.998;2023-03-04T00:26:06;101802.44;;;6.61;100.00
3142;BME280;1581;51.568;6.998;2023-03-04T00:28:36;101800.19;;;6.66;100.00
3142;BME280;1581;51.568;6.998;2023-03-04T00:31:05;101801.88;;;6.67;100.00
3142;BME280;1581;51.568;6.998;2023-03-04T00:33:32;101796.16;;;6.52;100.00
3142;BME280;1581;51.568;6.998;2023-03-04T00:36:03;101796.31;;;6.79;100.00
3142;BME280;1581;51.568;6.998;2023-03-04T00:38:31;101790.75;;;6.54;100.00
3142;BME280;1581;51.568;6.998;2023-03-04T00:40:58;101794.91;;;6.66;100.00
3142;BME280;1581;51.568;6.998;2023-03-04T00:43:26;101790.59;;;6.55;100.00
3142;BME280;1581;51.568;6.998;2023-03-04T00:45:56;101787.94;;;6.65;100.00
3142;BME280;1581;51.568;6.998;2023-03-04T00:48:24;101787.81;;;6.66;100.00
3142;BME280;1581;51.568;6.998;2023-03-04T00:50:52;101778.41;;;6.34;100.00
3142;BME280;1581;51.568;6.998;2023-03-04T00:53:20;101785.25;;;6.46;100.00
3142;BME280;1581;51.568;6.998;2023-03-04T00:55:49;101786.00;;;6.57;100.00
3142;BME280;1581;51.568;6.998;2023-03-04T00:58:17;101784.03;;;6.69;100.00
3142;BME280;1581;51.568;6.998;2023-03-04T01:00:44;101785.03;;;6.58;100.00
3142;BME280;1581;51.568;6.998;2023-03-04T01:03:14;101781.25;;;6.61;100.00
3142;BME280;1581;51.568;6.998;2023-03-04T01:05:41;101774.97;;;6.43;100.00
3142;BME280;1581;51.568;6.998;2023-03-04T01:08:09;101780.69;;;6.48;100.00
3142;BME280;1581;51.568;6.998;2023-03-04T01:10:36;101787.09;;;6.55;100.00
3142;BME280;1581;51.568;6.998;2023-03-04T01:13:04;101778.84;;;6.39;100.00
3142;BME280;1581;51.568;6.998;2023-03-04T01:15:32;101779.84;;;6.57;100.00
3142;BME280;1581;51.568;6.998;2023-03-04T01:18:00;101774.28;;;6.60;100.00
3142;BME280;1581;51.568;6.998;2023-03-04T01:20:30;101775.09;;;6.60;100.00
3142;BME280;1581;51.568;6.998;2023-03-04T01:22:57;101769.00;;;6.60;100.00
3142;BME280;1581;51.568;6.998;2023-03-04T01:25:25;101772.91;;;6.65;100.00
3142;BME280;1581;51.568;6.998;2023-03-04T01:27:53;101769.13;;;6.96;100.00
3142;BME280;1581;51.568;6.998;2023-03-04T01:30:20;101776.06;;;6.59;100.00
3142;BME280;1581;51.568;6.998;2023-03-04T01:32:48;101769.38;;;6.36;100.00
3142;BME280;1581;51.568;6.998;2023-03-04T01:35:16;101762.28;;;6.75;100.00
3142;BME280;1581;51.568;6.998;2023-03-04T01:37:45;101762.28;;;6.75;100.00
3142;BME280;1581;51.568;6.998;2023-03-04T01:40:15;101760.59;;;6.55;100.00
3142;BME280;1581;51.568;6.998;2023-03-04T01:42:43;101763.41;;;6.53;100.00
3142;BME280;1581;51.568;6.998;2023-03-04T01:45:14;101760.78;;;6.63;100.00
3142;BME280;1581;51.568;6.998;2023-03-04T01:47:45;101760.34;;;6.86;100.00
3142;BME280;1581;51.568;6.998;2023-03-04T01:50:21;101765.91;;;6.83;100.00
3142;BME280;1581;51.568;6.998;2023-03-04T01:52:51;101766.19;;;6.80;100.00
3142;BME280;1581;51.568;6.998;2023-03-04T01:55:21;101760.63;;;6.92;100.00
3142;BME280;1581;51.568;6.998;2023-03-04T01:57:50;101757.94;;;7.02;99.37
3142;BME280;1581;51.568;6.998;2023-03-04T02:00:23;101761.03;;;7.07;99.08
3142;BME280;1581;51.568;6.998;2023-03-04T02:02:54;101762.28;;;7.12;98.55
3142;BME280;1581;51.568;6.998;2023-03-04T02:05:24;101761.47;;;7.02;98.80
3142;BME280;1581;51.568;6.998;2023-03-04T02:07:55;101753.78;;;6.90;99.37
3142;BME280;1581;51.568;6.998;2023-03-04T02:10:24;101760.34;;;7.05;98.73
3142;BME280;1581;51.568;6.998;2023-03-04T02:12:52;101755.84;;;7.05;98.99
3142;BME280;1581;51.568;6.998;2023-03-04T02:15:20;101757.00;;;6.93;99.24
3142;BME280;1581;51.568;6.998;2023-03-04T02:17:49;101754.19;;;7.14;98.64
3142;BME280;1581;51.568;6.998;2023-03-04T02:20:34;101750.00;;;7.11;98.30
3142;BME280;1581;51.568;6.998;2023-03-04T02:23:12;101753.09;;;6.97;99.81
3142;BME280;1581;51.568;6.998;2023-03-04T02:25:46;101751.28;;;6.88;99.54
3142;BME280;1581;51.568;6.998;2023-03-04T02:28:17;101740.81;;;6.96;99.23
3142;BME280;1581;51.568;6.998;2023-03-04T02:30:45;101742.91;;;7.02;98.92
3142;BME280;1581;51.568;6.998;2023-03-04T02:33:16;101743.03;;;7.10;97.74
3142;BME280;1581;51.568;6.998;2023-03-04T02:35:45;101736.09;;;6.90;98.71
3142;BME280;1581;51.568;6.998;2023-03-04T02:38:13;101741.19;;;7.11;98.35
3142;BME280;1581;51.568;6.998;2023-03-04T02:40:44;101735.09;;;7.10;98.27
3142;BME280;1581;51.568;6.998;2023-03-04T02:43:15;101728.22;;;7.17;98.14
3142;BME280;1581;51.568;6.998;2023-03-04T02:45:45;101730.16;;;7.15;98.13
3142;BME280;1581;51.568;6.998;2023-03-04T02:48:19;101729.06;;;7.08;98.08
3142;BME280;1581;51.568;6.998;2023-03-04T02:50:49;101720.97;;;7.10;97.73
3142;BME280;1581;51.568;6.998;2023-03-04T02:53:18;101719.63;;;6.87;98.86
3142;BME280;1581;51.568;6.998;2023-03-04T02:55:47;101717.78;;;7.06;98.36
3142;BME280;1581;51.568;6.998;2023-03-04T02:58:16;101709.50;;;7.19;97.59
3142;BME280;1581;51.568;6.998;2023-03-04T03:00:44;101705.50;;;7.05;97.89
3142;BME280;1581;51.568;6.998;2023-03-04T03:03:12;101710.84;;;6.96;98.54
3142;BME280;1581;51.568;6.998;2023-03-04T03:05:39;101715.56;;;7.11;98.42
3142;BME280;1581;51.568;6.998;2023-03-04T03:08:07;101714.25;;;7.25;97.39
3142;BME280;1581;51.568;6.998;2023-03-04T03:10:35;101708.31;;;7.04;97.25
3142;BME280;1581;51.568;6.998;2023-03-04T03:13:03;101708.75;;;6.71;99.24
3142;BME280;1581;51.568;6.998;2023-03-04T03:15:32;101709.03;;;6.78;99.30
3142;BME280;1581;51.568;6.998;2023-03-04T03:17:59;101713.59;;;6.94;98.62
3142;BME280;1581;51.568;6.998;2023-03-04T03:20:27;101705.22;;;7.08;98.11
3142;BME280;1581;51.568;6.998;2023-03-04T03:22:55;101698.84;;;7.01;98.04
3142;BME280;1581;51.568;6.998;2023-03-04T03:25:22;101698.09;;;7.09;98.34
3142;BME280;1581;51.568;6.998;2023-03-04T03:27:50;101693.25;;;6.95;98.61
3142;BME280;1581;51.568;6.998;2023-03-04T03:30:17;101702.34;;;6.55;100.00
3142;BME280;1581;51.568;6.998;2023-03-04T03:32:47;101704.44;;;6.70;100.00
3142;BME280;1581;51.568;6.998;2023-03-04T03:35:14;101695.41;;;6.54;100.00
3142;BME280;1581;51.568;6.998;2023-03-04T03:37:42;101691.09;;;6.53;100.00
3142;BME280;1581;51.568;6.998;2023-03-04T03:40:12;101696.78;;;6.86;99.84
3142;BME280;1581;51.568;6.998;2023-03-04T03:42:39;101692.75;;;6.73;99.94
3142;BME280;1581;51.568;6.998;2023-03-04T03:45:08;101693.56;;;6.73;100.00
3142;BME280;1581;51.568;6.998;2023-03-04T03:47:36;101696.50;;;6.80;100.00
3142;BME280;1581;51.568;6.998;2023-03-04T03:50:06;101691.16;;;6.98;99.62
3142;BME280;1581;51.568;6.998;2023-03-04T03:52:34;101696.75;;;6.95;99.33
3142;BME280;1581;51.568;6.998;2023-03-04T03:55:02;101688.63;;;7.06;99.07
3142;BME280;1581;51.568;6.998;2023-03-04T03:57:30;101686.44;;;6.92;99.23
3142;BME280;1581;51.568;6.998;2023-03-04T03:59:58;101690.66;;;6.67;100.00
3142;BME280;1581;51.568;6.998;2023-03-04T04:02:25;101688.28;;;6.73;100.00
3142;BME280;1581;51.568;6.998;2023-03-04T04:04:53;101687.97;;;6.95;99.94
3142;BME280;1581;51.568;6.998;2023-03-04T04:07:22;101684.19;;;6.97;99.56
3142;BME280;1581;51.568;6.998;2023-03-04T04:09:50;101685.47;;;6.75;100.00
3142;BME280;1581;51.568;6.998;2023-03-04T04:12:19;101686.59;;;6.82;100.00
3142;BME280;1581;51.568;6.998;2023-03-04T04:14:47;101680.63;;;6.61;100.00
3142;BME280;1581;51.568;6.998;2023-03-04T04:17:15;101690.38;;;6.51;100.00
3142;BME280;1581;51.568;6.998;2023-03-04T04:19:43;101694.56;;;6.63;100.00
3142;BME280;1581;51.568;6.998;2023-03-04T04:22:16;101686.31;;;6.66;100.00
3142;BME280;1581;51.568;6.998;2023-03-04T04:24:45;101685.63;;;6.73;100.00
3142;BME280;1581;51.568;6.998;2023-03-04T04:27:13;101679.78;;;6.60;100.00
3142;BME280;1581;51.568;6.998;2023-03-04T04:29:40;101687.03;;;6.39;100.00
3142;BME280;1581;51.568;6.998;2023-03-04T04:32:08;101699.31;;;6.50;100.00
3142;BME280;1581;51.568;6.998;2023-03-04T04:34:38;101690.94;;;6.82;100.00
3142;BME280;1581;51.568;6.998;2023-03-04T04:37:06;101692.59;;;6.74;100.00
3142;BME280;1581;51.568;6.998;2023-03-04T04:39:33;101695.91;;;6.85;100.00
3142;BME280;1581;51.568;6.998;2023-03-04T04:42:03;101692.44;;;6.76;100.00
3142;BME280;1581;51.568;6.998;2023-03-04T04:44:31;101688.13;;;6.75;100.00
3142;BME280;1581;51.568;6.998;2023-03-04T04:46:58;101691.59;;;6.84;100.00
3142;BME280;1581;51.568;6.998;2023-03-04T04:49:26;101692.47;;;6.57;100.00
3142;BME280;1581;51.568;6.998;2023-03-04T04:51:54;101685.34;;;6.67;100.00
3142;BME280;1581;51.568;6.998;2023-03-04T04:54:22;101695.63;;;6.79;100.00
3142;BME280;1581;51.568;6.998;2023-03-04T04:56:50;101696.06;;;6.93;100.00
3142;BME280;1581;51.568;6.998;2023-03-04T04:59:19;101696.06;;;6.84;100.00
3142;BME280;1581;51.568;6.998;2023-03-04T05:01:47;101695.91;;;6.85;100.00
3142;BME280;1581;51.568;6.998;2023-03-04T05:04:15;101694.13;;;6.86;100.00
3142;BME280;1581;51.568;6.998;2023-03-04T05:06:43;101697.59;;;6.96;100.00
3142;BME280;1581;51.568;6.998;2023-03-04T05:09:12;101696.88;;;7.03;100.00
3142;BME280;1581;51.568;6.998;2023-03-04T05:11:39;101686.13;;;7.05;100.00
3142;BME280;1581;51.568;6.998;2023-03-04T05:14:07;101698.41;;;7.06;100.00
3142;BME280;1581;51.568;6.998;2023-03-04T05:16:36;101689.38;;;6.89;100.00
3142;BME280;1581;51.568;6.998;2023-03-04T05:19:04;101686.41;;;7.02;100.00
3142;BME280;1581;51.568;6.998;2023-03-04T05:21:32;101690.50;;;6.78;100.00
3142;BME280;1581;51.568;6.998;2023-03-04T05:23:59;101693.00;;;6.88;100.00
3142;BME280;1581;51.568;6.998;2023-03-04T05:26:27;101688.97;;;6.09;100.00
3142;BME280;1581;51.568;6.998;2023-03-04T05:28:55;101692.72;;;6.06;100.00
3142;BME280;1581;51.568;6.998;2023-03-04T05:31:22;101691.91;;;6.15;100.00
3142;BME280;1581;51.568;6.998;2023-03-04T05:33:52;101679.50;;;6.25;100.00
3142;BME280;1581;51.568;6.998;2023-03-04T05:36:19;101686.91;;;6.41;100.00
3142;BME280;1581;51.568;6.998;2023-03-04T05:38:47;101683.94;;;6.25;100.00
3142;BME280;1581;51.568;6.998;2023-03-04T05:41:15;101679.63;;;6.14;100.00
3142;BME280;1581;51.568;6.998;2023-03-04T05:43:45;101691.63;;;6.47;100.00
3142;BME280;1581;51.568;6.998;2023-03-04T05:46:14;101686.47;;;6.36;100.00
3142;BME280;1581;51.568;6.998;2023-03-04T05:48:42;101683.53;;;6.29;100.00
3142;BME280;1581;51.568;6.998;2023-03-04T05:51:11;101687.72;;;6.41;100.00
3142;BME280;1581;51.568;6.998;2023-03-04T05:53:40;101691.63;;;6.37;100.00
3142;BME280;1581;51.568;6.998;2023-03-04T05:56:09;101695.97;;;6.38;100.00
3142;BME280;1581;51.568;6.998;2023-03-04T05:58:37;101695.50;;;6.14;100.00
3142;BME280;1581;51.568;6.998;2023-03-04T06:01:06;101698.19;;;6.52;100.00
3142;BME280;1581;51.568;6.998;2023-03-04T06:03:34;101700.13;;;6.41;100.00
3142;BME280;1581;51.568;6.998;2023-03-04T06:06:03;101700.13;;;6.69;100.00
3142;BME280;1581;51.568;6.998;2023-03-04T06:08:32;101697.91;;;6.46;100.00
3142;BME280;1581;51.568;6.998;2023-03-04T06:11:00;101699.28;;;6.69;100.00
3142;BME280;1581;51.568;6.998;2023-03-04T06:13:30;101699.56;;;6.47;100.00
3142;BME280;1581;51.568;6.998;2023-03-04T06:15:59;101706.22;;;6.79;100.00
3142;BME280;1581;51.568;6.998;2023-03-04T06:18:28;101703.03;;;6.76;100.00
3142;BME280;1581;51.568;6.998;2023-03-04T06:20:56;101709.31;;;6.93;100.00
3142;BME280;1581;51.568;6.998;2023-03-04T06:23:27;101714.75;;;6.92;100.00
3142;BME280;1581;51.568;6.998;2023-03-04T06:25:59;101709.59;;;6.90;100.00
3142;BME280;1581;51.568;6.998;2023-03-04T06:28:27;101713.63;;;6.76;100.00
3142;BME280;1581;51.568;6.998;2023-03-04T06:30:56;101717.41;;;6.73;100.00
3142;BME280;1581;51.568;6.998;2023-03-04T06:33:24;101712.53;;;6.59;100.00
3142;BME280;1581;51.568;6.998;2023-03-04T06:35:54;101720.06;;;6.82;100.00
3142;BME280;1581;51.568;6.998;2023-03-04T06:38:22;101711.53;;;6.79;100.00
3142;BME280;1581;51.568;6.998;2023-03-04T06:40:51;101714.59;;;6.75;100.00
3142;BME280;1581;51.568;6.998;2023-03-04T06:43:21;101724.13;;;6.58;100.00
3142;BME280;1581;51.568;6.998;2023-03-04T06:45:50;101716.16;;;6.49;100.00
3142;BME280;1581;51.568;6.998;2023-03-04T06:48:17;101722.56;;;6.75;100.00
3142;BME280;1581;51.568;6.998;2023-03-04T06:50:45;101721.56;;;6.76;100.00
3142;BME280;1581;51.568;6.998;2023-03-04T06:53:13;101732.59;;;6.81;100.00
3142;BME280;1581;51.568;6.998;2023-03-04T06:55:40;101724.94;;;6.49;100.00
3142;BME280;1581;51.568;6.998;2023-03-04T06:58:08;101732.31;;;6.65;100.00
3142;BME280;1581;51.568;6.998;2023-03-04T07:00:37;101726.63;;;6.60;100.00
3142;BME280;1581;51.568;6.998;2023-03-04T07:03:05;101725.91;;;6.77;100.00
3142;BME280;1581;51.568;6.998;2023-03-04T07:05:33;101732.31;;;6.46;100.00
3142;BME280;1581;51.568;6.998;2023-03-04T07:08:01;101731.50;;;6.45;100.00
3142;BME280;1581;51.568;6.998;2023-03-04T07:10:29;101735.13;;;6.63;100.00
3142;BME280;1581;51.568;6.998;2023-03-04T07:12:56;101742.19;;;6.91;100.00
3142;BME280;1581;51.568;6.998;2023-03-04T07:15:24;101732.75;;;6.98;100.00
3142;BME280;1581;51.568;6.998;2023-03-04T07:17:53;101733.00;;;6.48;100.00
3142;BME280;1581;51.568;6.998;2023-03-04T07:20:21;101740.53;;;6.52;100.00
3142;BME280;1581;51.568;6.998;2023-03-04T07:22:49;101734.84;;;6.57;100.00
3142;BME280;1581;51.568;6.998;2023-03-04T07:25:16;101741.53;;;6.80;100.00
3142;BME280;1581;51.568;6.998;2023-03-04T07:27:44;101739.16;;;6.48;100.00
3142;BME280;1581;51.568;6.998;2023-03-04T07:30:13;101747.81;;;6.60;100.00
3142;BME280;1581;51.568;6.998;2023-03-04T07:32:40;101742.63;;;6.49;100.00
3142;BME280;1581;51.568;6.998;2023-03-04T07:35:09;101740.94;;;6.85;100.00
3142;BME280;1581;51.568;6.998;2023-03-04T07:37:37;101736.63;;;6.94;100.00
3142;BME280;1581;51.568;6.998;2023-03-04T07:40:09;101737.63;;;6.74;100.00
3142;BME280;1581;51.568;6.998;2023-03-04T07:42:37;101731.06;;;6.59;100.00
3142;BME280;1581;51.568;6.998;2023-03-04T07:45:06;101746.66;;;7.00;100.00
3142;BME280;1581;51.568;6.998;2023-03-04T07:47:34;101748.19;;;7.12;100.00
3142;BME280;1581;51.568;6.998;2023-03-04T07:50:02;101748.34;;;7.01;100.00
3142;BME280;1581;51.568;6.998;2023-03-04T07:52:31;101744.50;;;7.41;100.00
3142;BME280;1581;51.568;6.998;2023-03-04T07:54:59;101748.75;;;7.06;100.00
3142;BME280;1581;51.568;6.998;2023-03-04T07:57:27;101743.53;;;7.33;100.00
3142;BME280;1581;51.568;6.998;2023-03-04T07:59:56;101744.31;;;6.78;100.00
3142;BME280;1581;51.568;6.998;2023-03-04T08:02:24;101742.59;;;7.05;100.00
3142;BME280;1581;51.568;6.998;2023-03-04T08:04:51;101742.34;;;6.42;100.00
3142;BME280;1581;51.568;6.998;2023-03-04T08:07:19;101746.13;;;6.87;100.00
3142;BME280;1581;51.568;6.998;2023-03-04T08:09:48;101755.59;;;7.18;100.00
3142;BME280;1581;51.568;6.998;2023-03-04T08:12:16;101754.34;;;7.58;100.00
3142;BME280;1581;51.568;6.998;2023-03-04T08:14:44;101751.16;;;7.45;100.00
3142;BME280;1581;51.568;6.998;2023-03-04T08:17:12;101754.16;;;7.69;100.00
3142;BME280;1581;51.568;6.998;2023-03-04T08:19:41;101759.19;;;8.26;100.00
3142;BME280;1581;51.568;6.998;2023-03-04T08:22:09;101761.34;;;7.86;100.00
3142;BME280;1581;51.568;6.998;2023-03-04T08:24:37;101761.78;;;7.81;100.00
3142;BME280;1581;51.568;6.998;2023-03-04T08:27:06;101764.50;;;7.72;100.00
3142;BME280;1581;51.568;6.998;2023-03-04T08:29:33;101763.59;;;7.35;100.00
3142;BME280;1581;51.568;6.998;2023-03-04T08:32:01;101764.84;;;7.86;100.00
3142;BME280;1581;51.568;6.998;2023-03-04T08:34:29;101754.66;;;8.36;100.00
3142;BME280;1581;51.568;6.998;2023-03-04T08:36:57;101759.41;;;8.76;100.00
3142;BME280;1581;51.568;6.998;2023-03-04T08:39:25;101751.31;;;8.07;100.00
3142;BME280;1581;51.568;6.998;2023-03-04T08:41:53;101750.75;;;8.13;100.00
3142;BME280;1581;51.568;6.998;2023-03-04T08:44:23;101747.19;;;7.95;100.00
3142;BME280;1581;51.568;6.998;2023-03-04T08:46:51;101756.72;;;7.52;100.00
3142;BME280;1581;51.568;6.998;2023-03-04T08:49:19;101744.25;;;7.98;100.00
3142;BME280;1581;51.568;6.998;2023-03-04T08:51:46;101750.06;;;8.38;100.00
3142;BME280;1581;51.568;6.998;2023-03-04T08:54:14;101751.69;;;7.94;100.00
3142;BME280;1581;51.568;6.998;2023-03-04T08:56:42;101747.94;;;8.14;100.00
3142;BME280;1581;51.568;6.998;2023-03-04T08:59:10;101753.47;;;7.67;100.00
3142;BME280;1581;51.568;6.998;2023-03-04T09:01:39;101759.38;;;7.61;100.00
3142;BME280;1581;51.568;6.998;2023-03-04T09:04:06;101755.38;;;7.29;100.00
3142;BME280;1581;51.568;6.998;2023-03-04T09:06:34;101752.78;;;7.19;100.00
3142;BME280;1581;51.568;6.998;2023-03-04T09:09:03;101754.38;;;7.85;100.00
3142;BME280;1581;51.568;6.998;2023-03-04T09:11:31;101751.88;;;8.37;100.00
3142;BME280;1581;51.568;6.998;2023-03-04T09:13:58;101755.84;;;8.24;100.00
3142;BME280;1581;51.568;6.998;2023-03-04T09:16:26;101754.66;;;8.09;100.00
3142;BME280;1581;51.568;6.998;2023-03-04T09:18:55;101748.38;;;8.37;100.00
3142;BME280;1581;51.568;6.998;2023-03-04T09:21:23;101747.13;;;8.58;100.00
3142;BME280;1581;51.568;6.998;2023-03-04T09:23:50;101744.88;;;8.53;100.00
3142;BME280;1581;51.568;6.998;2023-03-04T09:26:28;101745.97;;;8.43;100.00
3142;BME280;1581;51.568;6.998;2023-03-04T09:29:00;101744.38;;;8.33;100.00
3142;BME280;1581;51.568;6.998;2023-03-04T09:31:30;101744.59;;;7.85;100.00
3142;BME280;1581;51.568;6.998;2023-03-04T09:34:00;101741.78;;;8.93;100.00
3142;BME280;1581;51.568;6.998;2023-03-04T09:36:28;101745.28;;;9.19;100.00
3142;BME280;1581;51.568;6.998;2023-03-04T09:38:59;101742.63;;;8.93;100.00
3142;BME280;1581;51.568;6.998;2023-03-04T09:41:36;101744.56;;;9.34;100.00
3142;BME280;1581;51.568;6.998;2023-03-04T09:44:13;101744.41;;;9.61;100.00
3142;BME280;1581;51.568;6.998;2023-03-04T09:46:43;101739.88;;;9.28;100.00
3142;BME280;1581;51.568;6.998;2023-03-04T09:49:14;101735.22;;;9.05;100.00
3142;BME280;1581;51.568;6.998;2023-03-04T09:52:01;101730.44;;;9.08;100.00
3142;BME280;1581;51.568;6.998;2023-03-04T09:54:54;101724.19;;;9.76;100.00
3142;BME280;1581;51.568;6.998;2023-03-04T09:57:41;101733.19;;;9.49;100.00
3142;BME280;1581;51.568;6.998;2023-03-04T10:00:17;101735.75;;;9.08;100.00
3142;BME280;1581;51.568;6.998;2023-03-04T10:03:15;101725.91;;;9.26;100.00
3142;BME280;1581;51.568;6.998;2023-03-04T10:05:55;101730.22;;;9.52;100.00
3142;BME280;1581;51.568;6.998;2023-03-04T10:08:43;101730.34;;;10.02;100.00
3142;BME280;1581;51.568;6.998;2023-03-04T10:11:16;101724.56;;;9.81;100.00
3142;BME280;1581;51.568;6.998;2023-03-04T10:13:55;101725.16;;;9.16;100.00
3142;BME280;1581;51.568;6.998;2023-03-04T10:16:30;101714.94;;;9.54;100.00
3142;BME280;1581;51.568;6.998;2023-03-04T10:19:17;101714.06;;;10.21;100.00
3142;BME280;1581;51.568;6.998;2023-03-04T10:21:50;101720.72;;;10.17;100.00
3142;BME280;1581;51.568;6.998;2023-03-04T10:24:21;101710.19;;;9.74;100.00
3142;BME280;1581;51.568;6.998;2023-03-04T10:26:53;101708.78;;;9.54;100.00
3142;BME280;1581;51.568;6.998;2023-03-04T10:29:23;101714.41;;;9.18;100.00
3142;BME280;1581;51.568;6.998;2023-03-04T10:31:51;101719.81;;;9.67;100.00
3142;BME280;1581;51.568;6.998;2023-03-04T10:34:21;101713.34;;;9.69;100.00
3142;BME280;1581;51.568;6.998;2023-03-04T10:37:01;101708.53;;;10.06;100.00
3142;BME280;1581;51.568;6.998;2023-03-04T10:39:32;101702.13;;;10.32;100.00
3142;BME280;1581;51.568;6.998;2023-03-04T10:42:04;101706.59;;;10.40;100.00
3142;BME280;1581;51.568;6.998;2023-03-04T10:44:33;101712.66;;;10.98;100.00
3142;BME280;1581;51.568;6.998;2023-03-04T10:47:09;101713.09;;;10.22;100.00
3142;BME280;1581;51.568;6.998;2023-03-04T10:49:51;101713.66;;;10.57;100.00
3142;BME280;1581;51.568;6.998;2023-03-04T10:52:28;101712.41;;;10.20;100.00
3142;BME280;1581;51.568;6.998;2023-03-04T10:54:58;101714.94;;;9.96;100.00
3142;BME280;1581;51.568;6.998;2023-03-04T10:57:35;101710.91;;;10.17;100.00
3142;BME280;1581;51.568;6.998;2023-03-04T11:00:26;101723.00;;;9.70;100.00
3142;BME280;1581;51.568;6.998;2023-03-04T11:03:28;101717.75;;;9.86;100.00
3142;BME280;1581;51.568;6.998;2023-03-04T11:06:15;101716.56;;;10.14;100.00
3142;BME280;1581;51.568;6.998;2023-03-04T11:08:48;101713.47;;;10.58;100.00
3142;BME280;1581;51.568;6.998;2023-03-04T11:11:26;101708.09;;;10.34;100.00
3142;BME280;1581;51.568;6.998;2023-03-04T11:14:03;101705.41;;;10.27;100.00
3142;BME280;1581;51.568;6.998;2023-03-04T11:16:33;101699.97;;;10.44;100.00
3142;BME280;1581;51.568;6.998;2023-03-04T11:19:05;101696.06;;;10.15;100.00
3142;BME280;1581;51.568;6.998;2023-03-04T11:21:38;101700.66;;;10.54;100.00
3142;BME280;1581;51.568;6.998;2023-03-04T11:24:14;101692.59;;;10.14;100.00
3142;BME280;1581;51.568;6.998;2023-03-04T11:26:47;101687.19;;;9.65;100.00
3142;BME280;1581;51.568;6.998;2023-03-04T11:29:21;101680.13;;;9.81;100.00
3142;BME280;1581;51.568;6.998;2023-03-04T11:31:55;101686.00;;;9.93;100.00
3142;BME280;1581;51.568;6.998;2023-03-04T11:34:35;101681.91;;;9.39;100.00
3142;BME280;1581;51.568;6.998;2023-03-04T11:37:11;101685.13;;;8.92;100.00
3142;BME280;1581;51.568;6.998;2023-03-04T11:39:49;101678.47;;;9.14;100.00
3142;BME280;1581;51.568;6.998;2023-03-04T11:42:28;101674.28;;;9.37;100.00
3142;BME280;1581;51.568;6.998;2023-03-04T11:44:58;101670.25;;;9.33;100.00
3142;BME280;1581;51.568;6.998;2023-03-04T11:47:43;101672.16;;;9.89;100.00
3142;BME280;1581;51.568;6.998;2023-03-04T11:50:30;101669.66;;;9.88;100.00
3142;BME280;1581;51.568;6.998;2023-03-04T11:53:29;101667.56;;;9.58;100.00
3142;BME280;1581;51.568;6.998;2023-03-04T11:56:21;101661.31;;;9.41;100.00
3142;BME280;1581;51.568;6.998;2023-03-04T11:59:12;101655.34;;;9.14;100.00
3142;BME280;1581;51.568;6.998;2023-03-04T12:01:51;101652.84;;;8.87;100.00
3142;BME280;1581;51.568;6.998;2023-03-04T12:04:47;101652.56;;;9.16;100.00
3142;BME280;1581;51.568;6.998;2023-03-04T12:10:31;101652.03;;;9.12;100.00
3142;BME280;1581;51.568;6.998;2023-03-04T12:16:28;101635.03;;;9.72;100.00
3142;BME280;1581;51.568;6.998;2023-03-04T12:19:13;101635.59;;;9.50;100.00
3142;BME280;1581;51.568;6.998;2023-03-04T12:22:29;101630.59;;;9.47;100.00
3142;BME280;1581;51.568;6.998;2023-03-04T12:25:27;101628.97;;;8.70;100.00
3142;BME280;1581;51.568;6.998;2023-03-04T12:28:13;101628.19;;;9.03;100.00
3142;BME280;1581;51.568;6.998;2023-03-04T12:33:50;101613.13;;;8.60;100.00
3142;BME280;1581;51.568;6.998;2023-03-04T12:36:30;101616.91;;;8.33;100.00
3142;BME280;1581;51.568;6.998;2023-03-04T12:39:18;101616.91;;;8.15;100.00
3142;BME280;1581;51.568;6.998;2023-03-04T12:42:03;101612.28;;;8.60;100.00
3142;BME280;1581;51.568;6.998;2023-03-04T12:44:38;101606.38;;;8.91;100.00
3142;BME280;1581;51.568;6.998;2023-03-04T12:47:26;101603.75;;;8.99;100.00
3142;BME280;1581;51.568;6.998;2023-03-04T12:50:28;101595.84;;;9.15;100.00
3142;BME280;1581;51.568;6.998;2023-03-04T12:53:07;101596.38;;;9.52;100.00
3142;BME280;1581;51.568;6.998;2023-03-04T12:55:42;101595.78;;;9.82;100.00
3142;BME280;1581;51.568;6.998;2023-03-04T12:58:16;101595.03;;;10.21;100.00
3142;BME280;1581;51.568;6.998;2023-03-04T13:00:52;101592.09;;;9.75;100.00
3142;BME280;1581;51.568;6.998;2023-03-04T13:03:32;101598.47;;;9.90;100.00
3142;BME280;1581;51.568;6.998;2023-03-04T13:06:18;101589.56;;;9.24;100.00
3142;BME280;1581;51.568;6.998;2023-03-04T13:08:58;101591.84;;;9.03;100.00
3142;BME280;1581;51.568;6.998;2023-03-04T13:11:49;101589.00;;;8.54;100.00
3142;BME280;1581;51.568;6.998;2023-03-04T13:14:30;101589.09;;;8.70;100.00
3142;BME280;1581;51.568;6.998;2023-03-04T13:16:59;101592.22;;;7.88;100.00
3142;BME280;1581;51.568;6.998;2023-03-04T13:19:49;101581.47;;;8.24;100.00
3142;BME280;1581;51.568;6.998;2023-03-04T13:22:43;101589.78;;;8.29;100.00
3142;BME280;1581;51.568;6.998;2023-03-04T13:25:38;101583.41;;;8.57;100.00
3142;BME280;1581;51.568;6.998;2023-03-04T13:28:26;101574.09;;;8.86;100.00
3142;BME280;1581;51.568;6.998;2023-03-04T13:31:24;101574.75;;;8.55;100.00
3142;BME280;1581;51.568;6.998;2023-03-04T13:34:01;101565.91;;;8.80;100.00
3142;BME280;1581;51.568;6.998;2023-03-04T13:36:58;101564.16;;;9.22;100.00
3142;BME280;1581;51.568;6.998;2023-03-04T13:39:35;101551.53;;;8.90;100.00
3142;BME280;1581;51.568;6.998;2023-03-04T13:44:59;101550.53;;;9.82;100.00
3142;BME280;1581;51.568;6.998;2023-03-04T13:47:54;101556.59;;;10.39;100.00
3142;BME280;1581;51.568;6.998;2023-03-04T13:50:39;101548.75;;;10.22;100.00